createdAt,value
2018-12-15T13:56:32.679Z,42.74
2018-12-15T13:57:32.736Z,42.96
2018-12-15T13:59:04.562Z,42.66
2018-12-15T14:00:03.227Z,42.83
2018-12-15T14:01:03.213Z,42.74
2018-12-15T14:02:03.206Z,42.74
2018-12-15T14:03:03.193Z,43.43
2018-12-15T14:04:03.183Z,42.83
2018-12-15T14:05:03.173Z,44.04
2018-12-15T14:06:03.159Z,43.91
2018-12-15T14:07:03.147Z,43.62
2018-12-15T14:08:03.141Z,43.51
2018-12-15T14:09:03.128Z,42.91
2018-12-15T14:10:03.119Z,43.82
2018-12-15T14:11:03.110Z,43.51
2018-12-15T14:12:03.096Z,42.82
2018-12-15T14:13:03.085Z,43.70
2018-12-15T14:14:03.075Z,43.32
2018-12-15T14:15:03.065Z,43.59
2018-12-15T14:16:03.052Z,43.79
2018-12-15T14:17:03.041Z,43.12
2018-12-15T14:18:03.033Z,43.09
2018-12-15T14:19:03.022Z,44.62
2018-12-15T14:20:03.011Z,43.90
2018-12-15T14:21:03.001Z,45.39
2018-12-15T14:22:03.000Z,44.82
2018-12-15T14:23:02.977Z,44.42
2018-12-15T14:24:02.971Z,44.59
2018-12-15T14:25:02.959Z,44.70
2018-12-15T14:26:02.948Z,44.29
2018-12-15T14:27:02.938Z,44.89
2018-12-15T14:28:02.925Z,46.00
2018-12-15T14:29:02.959Z,43.70
2018-12-15T14:30:02.904Z,43.99
2018-12-15T14:31:02.892Z,43.70
2018-12-15T14:32:02.880Z,43.70
2018-12-15T14:33:02.872Z,43.79
2018-12-15T14:34:02.861Z,44.70
2018-12-15T14:35:02.849Z,44.20
2018-12-15T14:36:02.838Z,43.70
2018-12-15T14:37:02.831Z,45.09
2018-12-15T14:38:02.816Z,45.20
2018-12-15T14:39:02.810Z,44.59
2018-12-15T14:40:02.804Z,43.40
2018-12-15T14:41:02.786Z,44.89
2018-12-15T14:42:02.775Z,44.79
2018-12-15T14:43:02.761Z,44.79
2018-12-15T14:44:02.752Z,45.20
2018-12-15T14:45:02.741Z,45.09
2018-12-15T14:46:02.728Z,43.99
2018-12-15T14:47:02.718Z,43.70
2018-12-15T14:48:02.706Z,43.77
2018-12-15T14:49:02.696Z,43.77
2018-12-15T14:50:03.881Z,43.18
2018-12-15T14:51:02.673Z,43.18
2018-12-15T14:52:09.799Z,45.07
2018-12-15T14:53:33.157Z,42.77
2018-12-15T14:54:33.123Z,43.85
2018-12-15T14:56:03.597Z,42.85
2018-12-15T14:57:03.575Z,42.76
2018-12-15T14:58:34.022Z,43.25
2018-12-15T14:59:34.011Z,43.25
2018-12-15T15:01:04.489Z,42.95
2018-12-15T15:02:04.455Z,42.76
2018-12-15T15:03:11.770Z,42.95
2018-12-15T15:04:34.931Z,42.85
2018-12-15T15:05:34.918Z,42.25
2018-12-15T15:07:05.392Z,42.15
2018-12-15T15:08:05.366Z,44.03
2018-12-15T15:09:35.826Z,42.73
2018-12-15T15:10:35.810Z,42.33
2018-12-15T15:12:06.296Z,42.43
2018-12-15T15:13:06.267Z,42.43
2018-12-15T15:14:36.735Z,42.43
2018-12-15T15:15:36.719Z,42.83
2018-12-15T15:17:07.197Z,42.63
2018-12-15T15:18:07.201Z,42.43
2018-12-15T15:19:07.181Z,41.93
2018-12-15T15:20:07.151Z,42.13
2018-12-15T15:21:07.159Z,42.63
2018-12-15T15:22:07.123Z,42.33
2018-12-15T15:23:07.117Z,42.33
2018-12-15T15:24:07.100Z,41.83
2018-12-15T15:25:07.091Z,42.24
2018-12-15T15:26:07.082Z,42.63
2018-12-15T15:27:07.067Z,43.33
2018-12-15T15:28:07.060Z,42.24
2018-12-15T15:29:07.046Z,43.23
2018-12-15T15:30:07.036Z,42.63
2018-12-15T15:31:07.025Z,42.54
2018-12-15T15:32:07.017Z,42.83
2018-12-15T15:33:07.003Z,42.63
2018-12-15T15:34:06.992Z,43.03
2018-12-15T15:35:06.981Z,42.43
2018-12-15T15:36:06.971Z,42.33
2018-12-15T15:37:06.959Z,42.54
2018-12-15T15:38:06.952Z,42.03
2018-12-15T15:39:06.938Z,42.54
2018-12-15T15:40:06.928Z,42.33
2018-12-15T15:41:06.920Z,42.43
2018-12-15T15:42:06.905Z,42.63
2018-12-15T15:43:06.893Z,42.83
2018-12-15T15:44:06.884Z,41.93
2018-12-15T15:45:06.873Z,43.83
2018-12-15T15:46:06.870Z,42.91
2018-12-15T15:47:06.850Z,42.32
2018-12-15T15:48:06.841Z,41.61
2018-12-15T15:49:06.828Z,42.21
2018-12-15T15:50:06.819Z,42.71
2018-12-15T15:51:06.807Z,42.11
2018-12-15T15:52:06.805Z,42.41
2018-12-15T15:53:06.785Z,43.29
2018-12-15T15:54:06.776Z,43.19
2018-12-15T15:55:06.763Z,42.40
2018-12-15T15:56:06.757Z,42.40
2018-12-15T15:57:06.742Z,41.99
2018-12-15T15:58:06.733Z,42.69
2018-12-15T15:59:06.722Z,42.19
2018-12-15T16:00:06.721Z,42.40
2018-12-15T16:01:06.702Z,42.19
2018-12-15T16:02:06.690Z,41.60
2018-12-15T16:03:06.679Z,42.59
2018-12-15T16:04:06.668Z,42.40
2018-12-15T16:05:06.664Z,41.80
2018-12-15T16:06:06.681Z,41.60
2018-12-15T16:07:06.645Z,41.50
2018-12-15T16:08:06.627Z,41.50
2018-12-15T16:09:06.619Z,42.10
2018-12-15T16:10:06.605Z,41.80
2018-12-15T16:11:06.598Z,41.39
2018-12-15T16:12:06.586Z,41.80
2018-12-15T16:13:06.572Z,41.50
2018-12-15T16:14:06.563Z,41.30
2018-12-15T16:15:06.551Z,41.80
2018-12-15T16:16:06.540Z,41.89
2018-12-15T16:17:06.539Z,41.67
2018-12-15T16:18:06.533Z,41.39
2018-12-15T16:19:06.512Z,41.60
2018-12-15T16:20:06.498Z,41.50
2018-12-15T16:21:06.488Z,41.30
2018-12-15T16:22:06.475Z,41.09
2018-12-15T16:23:06.467Z,42.27
2018-12-15T16:24:06.511Z,41.80
2018-12-15T16:25:06.446Z,42.29
2018-12-15T16:26:06.432Z,41.97
2018-12-15T16:27:06.422Z,42.18
2018-12-15T16:28:06.412Z,41.17
2018-12-15T16:29:06.401Z,41.77
2018-12-15T16:30:06.389Z,41.38
2018-12-15T16:31:06.380Z,41.97
2018-12-15T16:32:06.369Z,41.88
2018-12-15T16:33:06.360Z,42.18
2018-12-15T16:34:06.346Z,41.77
2018-12-15T16:35:06.337Z,41.88
2018-12-15T16:36:06.332Z,41.58
2018-12-15T16:37:06.317Z,41.28
2018-12-15T16:38:06.306Z,41.28
2018-12-15T16:39:06.292Z,41.58
2018-12-15T16:40:06.281Z,42.27
2018-12-15T16:41:06.275Z,41.77
2018-12-15T16:42:06.262Z,41.88
2018-12-15T16:43:06.258Z,41.88
2018-12-15T16:44:06.243Z,42.27
2018-12-15T16:45:06.230Z,41.97
2018-12-15T16:46:06.217Z,41.66
2018-12-15T16:47:06.210Z,41.77
2018-12-15T16:48:06.208Z,41.97
2018-12-15T16:49:06.247Z,42.18
2018-12-15T16:50:06.174Z,41.67
2018-12-15T16:51:06.163Z,41.28
2018-12-15T16:52:06.156Z,41.77
2018-12-15T16:53:06.144Z,41.77
2018-12-15T16:54:06.139Z,41.88
2018-12-15T16:55:06.122Z,41.88
2018-12-15T16:56:06.184Z,42.27
2018-12-15T16:57:06.102Z,41.88
2018-12-15T16:58:06.089Z,42.07
2018-12-15T16:59:06.085Z,41.47
2018-12-15T17:00:06.068Z,42.27
2018-12-15T17:01:06.057Z,41.58
2018-12-15T17:02:06.047Z,41.77
2018-12-15T17:03:06.038Z,41.28
2018-12-15T17:04:06.027Z,41.67
2018-12-15T17:05:06.014Z,42.07
2018-12-15T17:06:06.003Z,41.47
2018-12-15T17:07:05.995Z,41.77
2018-12-15T17:08:05.988Z,41.58
2018-12-15T17:09:05.991Z,41.58
2018-12-15T17:10:05.961Z,41.77
2018-12-15T17:11:05.954Z,42.37
2018-12-15T17:12:05.940Z,41.97
2018-12-15T17:13:05.929Z,41.77
2018-12-15T17:14:05.974Z,42.05
2018-12-15T17:15:05.908Z,41.96
2018-12-15T17:16:05.903Z,42.15
2018-12-15T17:17:05.894Z,42.25
2018-12-15T17:18:05.877Z,41.66
2018-12-15T17:19:05.868Z,41.46
2018-12-15T17:20:05.857Z,41.16
2018-12-15T17:21:05.846Z,41.47
2018-12-15T17:22:05.834Z,40.58
2018-12-15T17:23:05.821Z,40.38
2018-12-15T17:24:05.809Z,40.58
2018-12-15T17:25:05.800Z,40.48
2018-12-15T17:26:05.794Z,40.68
2018-12-15T17:27:05.777Z,40.78
2018-12-15T17:28:05.772Z,40.50
2018-12-15T17:29:05.759Z,40.50
2018-12-15T17:30:05.744Z,40.40
2018-12-15T17:31:05.742Z,40.80
2018-12-15T17:32:05.723Z,40.50
2018-12-15T17:33:05.714Z,40.72
2018-12-15T17:34:05.708Z,40.72
2018-12-15T17:35:05.693Z,40.72
2018-12-15T17:36:05.686Z,40.62
2018-12-15T17:37:05.669Z,40.62
2018-12-15T17:38:05.662Z,40.42
2018-12-15T17:39:05.650Z,40.72
2018-12-15T17:40:05.642Z,40.42
2018-12-15T17:41:05.629Z,40.62
2018-12-15T17:42:05.619Z,40.72
2018-12-15T17:43:05.607Z,40.44
2018-12-15T17:44:05.597Z,40.73
2018-12-15T17:45:05.592Z,40.73
2018-12-15T17:46:05.575Z,40.64
2018-12-15T17:47:05.563Z,40.73
2018-12-15T17:48:05.557Z,40.73
2018-12-15T17:49:05.544Z,40.83
2018-12-15T17:50:05.532Z,40.64
2018-12-15T17:51:05.522Z,40.83
2018-12-15T17:52:05.511Z,41.05
2018-12-15T17:53:05.501Z,40.75
2018-12-15T17:54:05.488Z,40.73
2018-12-15T17:55:05.478Z,40.83
2018-12-15T17:56:05.467Z,40.56
2018-12-15T17:57:05.470Z,40.64
2018-12-15T17:58:05.447Z,40.66
2018-12-15T17:59:05.436Z,40.66
2018-12-15T18:00:05.422Z,40.66
2018-12-15T18:01:05.417Z,40.66
2018-12-15T18:02:05.412Z,40.45
2018-12-15T18:03:05.392Z,40.66
2018-12-15T18:04:05.379Z,41.05
2018-12-15T18:05:05.368Z,41.16
2018-12-15T18:06:05.360Z,40.75
2018-12-15T18:07:05.348Z,40.36
2018-12-15T18:08:05.405Z,40.36
2018-12-15T18:09:05.325Z,41.16
2018-12-15T18:10:05.347Z,41.16
2018-12-15T18:11:05.306Z,41.46
2018-12-15T18:12:05.299Z,41.55
2018-12-15T18:13:05.279Z,40.45
2018-12-15T18:14:05.268Z,41.55
2018-12-15T18:15:05.258Z,41.36
2018-12-15T18:16:05.250Z,41.58
2018-12-15T18:17:05.237Z,41.36
2018-12-15T18:18:05.225Z,41.67
2018-12-15T18:19:05.215Z,41.38
2018-12-15T18:20:05.201Z,41.36
2018-12-15T18:21:09.777Z,41.38
2018-12-15T18:22:05.185Z,40.36
2018-12-15T18:23:05.171Z,40.75
2018-12-15T18:24:05.158Z,41.38
2018-12-15T18:25:05.149Z,40.97
2018-12-15T18:26:05.137Z,41.17
2018-12-15T18:27:05.125Z,41.47
2018-12-15T18:28:05.113Z,40.58
2018-12-15T18:29:05.105Z,40.58
2018-12-15T18:30:05.096Z,40.78
2018-12-15T18:31:05.081Z,40.67
2018-12-15T18:32:05.072Z,40.67
2018-12-15T18:33:05.058Z,41.38
2018-12-15T18:34:05.049Z,40.67
2018-12-15T18:35:05.076Z,40.67
2018-12-15T18:36:05.037Z,39.48
2018-12-15T18:37:05.014Z,39.48
2018-12-15T18:38:05.007Z,39.37
2018-12-15T18:39:04.997Z,39.18
2018-12-15T18:40:04.981Z,39.48
2018-12-15T18:41:04.971Z,39.28
2018-12-15T18:42:10.618Z,39.59
2018-12-15T18:43:05.949Z,40.17
2018-12-15T18:44:04.942Z,40.47
2018-12-15T18:45:04.930Z,40.58
2018-12-15T18:46:04.916Z,40.09
2018-12-15T18:47:04.905Z,40.99
2018-12-15T18:48:04.900Z,40.80
2018-12-15T18:49:04.883Z,40.69
2018-12-15T18:50:04.870Z,41.19
2018-12-15T18:51:04.866Z,40.59
2018-12-15T18:52:04.857Z,40.59
2018-12-15T18:53:04.837Z,40.50
2018-12-15T18:54:04.836Z,40.59
2018-12-15T18:55:04.819Z,40.80
2018-12-15T18:56:04.804Z,40.69
2018-12-15T18:57:04.852Z,40.30
2018-12-15T18:58:04.781Z,40.30
2018-12-15T18:59:04.773Z,41.09
2018-12-15T19:00:04.762Z,40.89
2018-12-15T19:01:04.753Z,40.50
2018-12-15T19:02:04.739Z,40.89
2018-12-15T19:03:04.725Z,40.69
2018-12-15T19:04:04.714Z,40.89
2018-12-15T19:05:04.779Z,40.89
2018-12-15T19:06:04.699Z,40.80
2018-12-15T19:07:04.687Z,40.89
2018-12-15T19:08:04.669Z,40.69
2018-12-15T19:09:04.667Z,40.59
2018-12-15T19:10:04.650Z,40.59
2018-12-15T19:11:04.646Z,41.11
2018-12-15T19:12:04.628Z,40.89
2018-12-15T19:13:04.616Z,40.69
2018-12-15T19:14:04.604Z,40.91
2018-12-15T19:15:04.596Z,40.50
2018-12-15T19:16:04.582Z,40.52
2018-12-15T19:17:04.573Z,40.81
2018-12-15T19:18:04.564Z,40.89
2018-12-15T19:19:04.547Z,40.71
2018-12-15T19:20:04.540Z,40.59
2018-12-15T19:21:04.533Z,40.52
2018-12-15T19:22:04.515Z,40.69
2018-12-15T19:23:04.503Z,40.69
2018-12-15T19:24:04.494Z,40.71
2018-12-15T19:25:04.483Z,40.71
2018-12-15T19:26:04.473Z,40.61
2018-12-15T19:27:04.466Z,40.71
2018-12-15T19:28:04.457Z,40.91
2018-12-15T19:29:04.439Z,40.91
2018-12-15T19:30:04.428Z,41.52
2018-12-15T19:31:04.420Z,40.71
2018-12-15T19:32:04.405Z,40.71
2018-12-15T19:33:04.400Z,40.71
2018-12-15T19:34:04.450Z,40.71
2018-12-15T19:35:04.372Z,41.11
2018-12-15T19:36:04.364Z,41.11
2018-12-15T19:37:04.352Z,40.91
2018-12-15T19:38:04.339Z,40.61
2018-12-15T19:39:04.328Z,40.91
2018-12-15T19:40:04.321Z,40.81
2018-12-15T19:41:04.306Z,40.52
2018-12-15T19:42:04.294Z,40.71
2018-12-15T19:43:04.283Z,40.91
2018-12-15T19:44:04.274Z,40.71
2018-12-15T19:45:04.263Z,40.41
2018-12-15T19:46:04.260Z,40.71
2018-12-15T19:47:04.240Z,40.71
2018-12-15T19:48:04.227Z,40.71
2018-12-15T19:49:04.217Z,41.41
2018-12-15T19:50:04.205Z,41.71
2018-12-15T19:51:04.200Z,41.71
2018-12-15T19:52:04.183Z,41.41
2018-12-15T19:53:04.174Z,41.52
2018-12-15T19:54:04.163Z,41.52
2018-12-15T19:55:04.149Z,41.61
2018-12-15T19:56:04.144Z,41.52
2018-12-15T19:57:04.164Z,41.41
2018-12-15T19:58:04.116Z,41.71
2018-12-15T19:59:04.109Z,41.91
2018-12-15T20:00:04.096Z,41.52
2018-12-15T20:01:04.085Z,41.31
2018-12-15T20:02:04.075Z,42.02
2018-12-15T20:03:04.062Z,41.91
2018-12-15T20:04:04.080Z,41.71
2018-12-15T20:05:04.038Z,41.82
2018-12-15T20:06:04.166Z,41.63
2018-12-15T20:07:04.017Z,41.61
2018-12-15T20:08:04.011Z,41.61
2018-12-15T20:09:03.994Z,41.71
2018-12-15T20:10:03.983Z,41.83
2018-12-15T20:11:03.975Z,41.61
2018-12-15T20:12:03.962Z,41.93
2018-12-15T20:13:03.952Z,41.91
2018-12-15T20:14:03.943Z,41.71
2018-12-15T20:15:03.933Z,41.31
2018-12-15T20:16:03.918Z,41.33
2018-12-15T20:17:03.906Z,41.61
2018-12-15T20:18:03.895Z,41.61
2018-12-15T20:19:03.893Z,40.81
2018-12-15T20:20:03.873Z,40.91
2018-12-15T20:21:03.863Z,40.81
2018-12-15T20:22:03.966Z,40.71
2018-12-15T20:23:03.840Z,40.81
2018-12-15T20:24:03.829Z,40.31
2018-12-15T20:25:03.823Z,41.31
2018-12-15T20:26:03.808Z,42.02
2018-12-15T20:27:03.794Z,40.71
2018-12-15T20:28:03.797Z,41.61
2018-12-15T20:29:03.774Z,41.52
2018-12-15T20:30:03.772Z,42.32
2018-12-15T20:31:03.759Z,41.71
2018-12-15T20:32:03.748Z,41.61
2018-12-15T20:33:03.729Z,41.71
2018-12-15T20:34:03.718Z,41.61
2018-12-15T20:35:03.705Z,41.41
2018-12-15T20:36:03.697Z,42.02
2018-12-15T20:37:03.683Z,41.41
2018-12-15T20:38:03.674Z,41.11
2018-12-15T20:39:03.662Z,41.31
2018-12-15T20:40:03.667Z,41.52
2018-12-15T20:41:03.639Z,42.41
2018-12-15T20:42:03.631Z,42.61
2018-12-15T20:43:03.618Z,41.71
2018-12-15T20:44:03.609Z,42.32
2018-12-15T20:45:03.603Z,41.82
2018-12-15T20:46:03.594Z,42.03
2018-12-15T20:47:03.581Z,42.54
2018-12-15T20:48:03.564Z,42.41
2018-12-15T20:49:03.549Z,42.11
2018-12-15T20:50:03.539Z,41.61
2018-12-15T20:51:03.527Z,42.21
2018-12-15T20:52:03.517Z,42.52
2018-12-15T20:53:03.506Z,42.52
2018-12-15T20:54:03.495Z,42.43
2018-12-15T20:55:03.485Z,42.43
2018-12-15T20:56:03.480Z,41.91
2018-12-15T20:57:03.464Z,42.11
2018-12-15T20:58:03.451Z,42.41
2018-12-15T20:59:03.440Z,42.54
2018-12-15T21:00:03.429Z,42.13
2018-12-15T21:01:03.479Z,42.03
2018-12-15T21:02:03.407Z,42.33
2018-12-15T21:03:03.398Z,42.43
2018-12-15T21:04:03.398Z,42.52
2018-12-15T21:05:03.376Z,42.24
2018-12-15T21:06:03.404Z,42.83
2018-12-15T21:07:03.351Z,42.13
2018-12-15T21:08:04.018Z,42.61
2018-12-15T21:09:03.337Z,42.24
2018-12-15T21:10:03.324Z,42.83
2018-12-15T21:11:03.307Z,42.61
2018-12-15T21:12:03.298Z,42.82
2018-12-15T21:13:03.286Z,42.24
2018-12-15T21:14:03.274Z,42.11
2018-12-15T21:15:03.265Z,41.71
2018-12-15T21:16:03.260Z,41.71
2018-12-15T21:17:03.241Z,41.82
2018-12-15T21:18:03.230Z,42.10
2018-12-15T21:19:03.229Z,41.80
2018-12-15T21:20:03.236Z,41.99
2018-12-15T21:21:03.195Z,41.89
2018-12-15T21:22:03.190Z,41.80
2018-12-15T21:23:03.175Z,41.89
2018-12-15T21:24:03.164Z,41.67
2018-12-15T21:25:03.154Z,41.97
2018-12-15T21:26:03.152Z,41.58
2018-12-15T21:27:03.130Z,41.25
2018-12-15T21:28:03.118Z,40.78
2018-12-15T21:29:03.112Z,40.47
2018-12-15T21:30:03.103Z,41.75
2018-12-15T21:31:03.084Z,41.17
2018-12-15T21:32:03.073Z,40.56
2018-12-15T21:33:03.073Z,41.96
2018-12-15T21:34:07.817Z,41.27
2018-12-15T21:35:04.067Z,41.85
2018-12-15T21:36:03.032Z,41.75
2018-12-15T21:37:03.018Z,40.66
2018-12-15T21:38:03.009Z,40.66
2018-12-15T21:39:03.006Z,40.66
2018-12-15T21:40:02.987Z,40.34
2018-12-15T21:41:02.976Z,41.14
2018-12-15T21:42:02.963Z,40.45
2018-12-15T21:43:02.953Z,41.46
2018-12-15T21:44:02.942Z,41.14
2018-12-15T21:45:02.928Z,41.55
2018-12-15T21:46:02.918Z,40.64
2018-12-15T21:47:02.906Z,40.23
2018-12-15T21:48:02.898Z,40.53
2018-12-15T21:49:02.888Z,41.03
2018-12-15T21:50:02.873Z,40.64
2018-12-15T21:51:02.866Z,40.34
2018-12-15T21:52:02.855Z,40.44
2018-12-15T21:53:02.841Z,39.94
2018-12-15T21:54:02.828Z,39.14
2018-12-15T21:55:02.819Z,40.53
2018-12-15T21:56:02.809Z,40.73
2018-12-15T21:57:02.802Z,40.34
2018-12-15T21:58:02.785Z,39.94
2018-12-15T21:59:02.775Z,40.14
2018-12-15T22:00:02.766Z,40.83
2018-12-15T22:01:02.760Z,40.14
2018-12-15T22:02:02.745Z,40.53
2018-12-15T22:03:02.740Z,40.23
2018-12-15T22:04:02.717Z,40.83
2018-12-15T22:05:02.707Z,40.04
2018-12-15T22:06:02.697Z,41.03
2018-12-15T22:07:02.684Z,39.74
2018-12-15T22:08:02.681Z,39.43
2018-12-15T22:09:02.666Z,39.43
2018-12-15T22:10:02.656Z,39.34
2018-12-15T22:11:02.640Z,40.04
2018-12-15T22:12:02.632Z,39.43
2018-12-15T22:13:02.622Z,40.73
2018-12-15T22:14:03.304Z,39.54
2018-12-15T22:15:02.597Z,39.74
2018-12-15T22:16:02.584Z,40.14
2018-12-15T22:17:02.578Z,40.23
2018-12-15T22:18:02.565Z,39.54
2018-12-15T22:19:02.552Z,39.34
